Time;durP1;ratioP1;P1;durP2;ratioP2;P2;SDS_P1;SDS_P2;PMS_P1;PMS_P2;Temp;Humidity;BMP_temperature;BMP_pressure;BME280_temperature;BME280_humidity;BME280_pressure;Samples;Min_cycle;Max_cycle;Signal;HPM_P1;HPM_P2
2021/07/19 00:01:36;;;;;;;7.67;3.83;;;20.40;1.00;21.10;100943.00;;;;4890029;29;20534;-80
2021/07/19 00:04:05;;;;;;;4.60;3.70;;;20.40;1.00;21.10;100901.00;;;;4897518;29;20653;-80
2021/07/19 00:06:33;;;;;;;5.33;3.43;;;20.30;1.00;21.00;100897.00;;;;4896787;29;20497;-81
2021/07/19 00:09:03;;;;;;;4.80;3.30;;;20.20;1.00;21.00;100946.00;;;;4908323;29;21023;-81
2021/07/19 00:11:38;;;;;;;7.67;4.27;;;20.20;1.00;20.90;100946.00;;;;4890190;29;20546;-81
2021/07/19 00:14:08;;;;;;;5.13;3.70;;;20.10;1.00;20.90;100948.00;;;;4901548;29;20466;-81
2021/07/19 00:16:38;;;;;;;7.57;4.47;;;20.10;1.00;20.90;100931.00;;;;4891348;29;20463;-84
2021/07/19 00:19:07;;;;;;;5.53;3.90;;;20.10;1.00;20.90;100938.00;;;;4906883;29;20474;-81
2021/07/19 00:21:35;;;;;;;6.40;3.90;;;20.10;1.00;20.80;100918.00;;;;4901388;29;20995;-84
2021/07/19 00:24:04;;;;;;;7.03;3.90;;;20.20;1.00;20.90;100929.00;;;;4924112;29;20624;-83
2021/07/19 00:26:33;;;;;;;4.20;3.80;;;20.20;1.00;20.80;100943.00;;;;4909466;29;20435;-84
2021/07/19 00:29:03;;;;;;;4.83;4.20;;;20.20;1.00;20.80;100882.00;;;;4918084;29;20500;-80
2021/07/19 00:31:34;;;;;;;5.97;3.47;;;20.20;1.00;20.70;100958.00;;;;4906197;29;20483;-81
2021/07/19 00:34:03;;;;;;;5.53;3.87;;;20.20;1.00;20.80;100949.00;;;;4899550;29;20463;-83
2021/07/19 00:36:32;;;;;;;6.83;4.27;;;20.10;1.00;20.80;100952.00;;;;4901915;29;20524;-80
2021/07/19 00:39:01;;;;;;;8.30;4.83;;;20.10;1.00;20.80;100948.00;;;;4909595;29;20479;-83
2021/07/19 00:41:30;;;;;;;5.83;4.07;;;20.10;1.00;20.70;100911.00;;;;4916814;29;20491;-81
2021/07/19 00:43:58;;;;;;;6.03;4.30;;;20.00;1.00;20.60;100932.00;;;;4916064;29;20488;-81
2021/07/19 00:46:28;;;;;;;4.90;4.00;;;20.00;1.00;20.60;100939.00;;;;4906355;29;20471;-80
2021/07/19 00:48:58;;;;;;;4.63;4.23;;;20.00;1.00;20.50;100910.00;;;;4901279;29;20487;-82
2021/07/19 00:51:27;;;;;;;4.23;3.40;;;19.90;1.00;20.50;100932.00;;;;4900637;29;20455;-80
2021/07/19 00:53:56;;;;;;;5.20;4.00;;;19.80;1.00;20.50;100931.00;;;;4903038;29;20456;-80
2021/07/19 00:56:27;;;;;;;9.73;4.37;;;19.80;1.00;20.50;100921.00;;;;4899989;29;20498;-81
2021/07/19 00:58:56;;;;;;;6.73;4.10;;;19.80;1.00;20.50;100928.00;;;;4903079;29;20471;-83
2021/07/19 01:01:26;;;;;;;4.60;4.10;;;19.70;1.00;20.50;100932.00;;;;4903075;29;20471;-81
2021/07/19 01:03:59;;;;;;;6.13;4.10;;;19.70;1.00;20.40;100929.00;;;;4893835;29;20487;-80
2021/07/19 01:06:31;;;;;;;5.23;4.50;;;19.70;1.00;20.30;100919.00;;;;4900990;29;20510;-80
2021/07/19 01:09:05;;;;;;;4.90;4.40;;;19.60;1.00;20.30;100927.00;;;;4895088;29;20851;-80
2021/07/19 01:11:36;;;;;;;6.37;4.43;;;19.60;1.00;20.30;100917.00;;;;4905147;29;20459;-80
2021/07/19 01:14:05;;;;;;;5.30;4.23;;;19.50;1.00;20.30;100920.00;;;;4899106;29;20456;-80
2021/07/19 01:16:38;;;;;;;5.90;4.70;;;19.50;1.00;20.20;100926.00;;;;4895356;29;20512;-81
2021/07/19 01:19:08;;;;;;;9.50;4.90;;;19.50;1.00;20.20;100918.00;;;;4898813;29;21146;-81
2021/07/19 01:22:04;;;;;;;6.73;4.53;;;19.50;1.00;20.20;100930.00;;;;4912570;29;20510;-82
2021/07/19 01:24:52;;;;;;;11.33;5.00;;;19.50;1.00;20.00;100897.00;;;;4911579;29;20479;-81
2021/07/19 01:28:06;;;;;;;7.30;4.60;;;19.40;1.00;20.10;100904.00;;;;4908501;29;20454;-82
2021/07/19 01:30:40;;;;;;;4.67;4.27;;;19.40;1.00;20.00;100929.00;;;;4923099;29;20463;-84
2021/07/19 01:33:09;;;;;;;6.07;4.80;;;19.40;1.00;20.00;100907.00;;;;4913739;29;20451;-83
2021/07/19 01:35:44;;;;;;;4.90;4.50;;;19.30;1.00;20.00;100929.00;;;;4915159;29;20431;-84
2021/07/19 01:38:13;;;;;;;6.77;4.67;;;19.30;1.00;20.00;100929.00;;;;4916679;29;20483;-84
2021/07/19 01:40:50;;;;;;;8.00;4.47;;;19.30;1.00;20.00;100916.00;;;;4905974;29;20484;-84
2021/07/19 01:43:20;;;;;;;5.37;4.87;;;19.40;1.00;20.00;100880.00;;;;4910859;29;20486;-83
2021/07/19 01:45:51;;;;;;;5.03;4.53;;;19.30;1.00;19.90;100870.00;;;;4915023;29;20443;-81
2021/07/19 01:48:27;;;;;;;4.87;4.37;;;19.30;1.00;19.90;100912.00;;;;4910172;29;20479;-80
2021/07/19 01:50:56;;;;;;;6.33;4.77;;;19.20;1.00;19.90;100866.00;;;;4902455;29;20519;-81
2021/07/19 01:53:42;;;;;;;5.30;4.80;;;19.10;1.00;19.90;100903.00;;;;4899763;29;20474;-81
2021/07/19 01:56:12;;;;;;;5.33;4.53;;;19.10;1.00;19.80;100878.00;;;;4898175;29;20463;-82
2021/07/19 01:58:41;;;;;;;7.37;4.50;;;19.00;1.00;19.80;100907.00;;;;4909708;29;20558;-83
2021/07/19 02:01:17;;;;;;;5.20;4.40;;;19.00;1.00;19.60;100898.00;;;;4885486;29;20498;-82
2021/07/19 02:03:46;;;;;;;6.13;5.17;;;18.90;1.00;19.70;100910.00;;;;4895598;29;20830;-82
2021/07/19 02:06:16;;;;;;;5.40;4.90;;;18.90;1.00;19.70;100900.00;;;;4896063;29;20472;-81
2021/07/19 02:09:01;;;;;;;5.40;4.73;;;18.90;1.00;19.70;100890.00;;;;4894794;29;20550;-83
2021/07/19 02:11:38;;;;;;;8.43;5.17;;;18.90;1.00;19.70;100894.00;;;;4917173;29;20474;-81
2021/07/19 02:14:08;;;;;;;5.13;4.63;;;18.90;1.00;19.70;100893.00;;;;4929154;29;20474;-84
2021/07/19 02:16:50;;;;;;;4.97;4.23;;;18.90;1.00;19.70;100877.00;;;;4913039;29;20458;-83
2021/07/19 02:19:24;;;;;;;5.67;4.70;;;18.90;1.00;19.70;100867.00;;;;4924279;29;20495;-84
2021/07/19 02:21:55;;;;;;;6.13;4.83;;;19.00;1.00;19.70;100900.00;;;;4898745;29;20547;-81
2021/07/19 02:24:43;;;;;;;9.47;5.20;;;19.00;1.00;19.70;100877.00;;;;4894548;29;20470;-80
2021/07/19 02:27:19;;;;;;;8.90;4.43;;;19.00;1.00;19.70;100897.00;;;;4901253;29;20467;-80
2021/07/19 02:29:50;;;;;;;5.50;5.00;;;19.00;1.00;19.70;100880.00;;;;4899988;29;20489;-80
2021/07/19 02:32:21;;;;;;;5.33;4.23;;;19.10;1.00;19.70;100893.00;;;;4892322;29;22341;-81
2021/07/19 02:34:54;;;;;;;5.27;4.77;;;19.10;1.00;19.70;100885.00;;;;4892346;29;20503;-80
2021/07/19 02:37:25;;;;;;;6.90;4.70;;;19.10;1.00;19.70;100906.00;;;;4908309;29;20470;-83
2021/07/19 02:40:19;;;;;;;5.30;4.43;;;19.20;1.00;19.70;100874.00;;;;4894891;29;20455;-82
2021/07/19 02:42:52;;;;;;;5.60;5.10;;;19.10;1.00;19.70;100903.00;;;;4900135;29;20459;-82
2021/07/19 02:45:21;;;;;;;5.20;4.67;;;19.10;1.00;19.60;100895.00;;;;4899697;29;20484;-81
2021/07/19 02:47:56;;;;;;;5.57;4.60;;;19.10;1.00;19.70;100912.00;;;;4889023;29;20459;-79
2021/07/19 02:50:34;;;;;;;4.97;4.57;;;19.10;1.00;19.70;100873.00;;;;4894483;29;20522;-80
2021/07/19 02:53:08;;;;;;;5.30;4.70;;;19.10;1.00;19.60;100912.00;;;;4901017;29;20455;-80
2021/07/19 02:55:39;;;;;;;5.90;5.30;;;19.10;1.00;19.60;100909.00;;;;4889105;29;20481;-81
2021/07/19 02:58:11;;;;;;;5.83;5.20;;;19.00;1.00;19.50;100890.00;;;;4884022;29;20479;-81
2021/07/19 03:00:41;;;;;;;5.83;5.23;;;19.00;1.00;19.60;100912.00;;;;4918676;29;20515;-83
2021/07/19 03:03:15;;;;;;;5.13;4.47;;;19.00;1.00;19.60;100903.00;;;;4912177;29;20450;-81
2021/07/19 03:05:52;;;;;;;5.63;4.90;;;19.00;1.00;19.60;100868.00;;;;4890054;29;20520;-80
2021/07/19 03:08:25;;;;;;;5.30;4.80;;;19.00;1.00;19.60;100898.00;;;;4882401;29;20471;-81
2021/07/19 03:11:10;;;;;;;6.27;4.83;;;19.00;1.00;19.60;100918.00;;;;4889502;29;20818;-80
2021/07/19 03:13:40;;;;;;;6.57;4.93;;;19.00;1.00;19.60;100921.00;;;;4895271;29;20904;-80
2021/07/19 03:16:12;;;;;;;5.83;5.10;;;19.00;1.00;19.60;100924.00;;;;4892288;29;20926;-80
2021/07/19 03:18:48;;;;;;;5.77;4.50;;;19.00;1.00;19.60;100900.00;;;;4901828;29;20482;-80
2021/07/19 03:21:20;;;;;;;5.23;4.73;;;18.90;1.00;19.50;100921.00;;;;4884689;29;20514;-80
2021/07/19 03:23:59;;;;;;;6.23;5.07;;;18.80;1.00;19.40;100883.00;;;;4898428;29;20470;-80
2021/07/19 03:26:29;;;;;;;7.00;5.27;;;18.70;1.00;19.40;100892.00;;;;4890742;29;20460;-81
2021/07/19 03:29:02;;;;;;;9.07;4.43;;;18.70;1.00;19.30;100897.00;;;;4896909;29;20475;-81
2021/07/19 03:31:36;;;;;;;10.00;5.50;;;18.60;1.00;19.30;100912.00;;;;4898470;29;20463;-81
2021/07/19 03:34:06;;;;;;;6.73;5.03;;;18.60;1.00;19.30;100890.00;;;;4902118;29;21105;-80
2021/07/19 03:36:36;;;;;;;7.40;4.97;;;18.60;1.00;19.30;100921.00;;;;4892317;29;20475;-85
2021/07/19 03:39:07;;;;;;;7.07;5.27;;;18.60;1.00;19.30;100909.00;;;;4901246;29;20900;-81
2021/07/19 03:41:46;;;;;;;9.63;4.60;;;18.60;1.00;19.30;100930.00;;;;4898944;29;20451;-81
2021/07/19 03:44:16;;;;;;;6.13;4.90;;;18.60;1.00;19.20;100934.00;;;;4882884;29;20486;-84
2021/07/19 03:46:46;;;;;;;7.50;5.53;;;18.60;1.00;19.30;100926.00;;;;4895806;29;20487;-81
2021/07/19 03:49:20;;;;;;;5.90;5.03;;;18.60;1.00;19.30;100902.00;;;;4900898;29;20483;-81
2021/07/19 03:51:50;;;;;;;5.87;4.70;;;18.60;1.00;19.20;100934.00;;;;4905766;29;20467;-82
2021/07/19 03:54:18;;;;;;;7.50;5.53;;;18.60;1.00;19.30;100931.00;;;;4918307;29;20479;-82
2021/07/19 03:56:48;;;;;;;7.30;5.20;;;18.60;1.00;19.40;100955.00;;;;4925875;29;20444;-84
2021/07/19 03:59:17;;;;;;;5.83;5.27;;;18.60;1.00;19.40;100936.00;;;;4924333;29;20543;-84
2021/07/19 04:01:48;;;;;;;7.47;6.00;;;18.70;1.00;19.40;100940.00;;;;4911396;29;20551;-80
2021/07/19 04:04:30;;;;;;;6.60;5.53;;;18.70;1.00;19.40;100890.00;;;;4902947;29;20496;-84
2021/07/19 04:07:02;;;;;;;6.80;5.23;;;18.70;1.00;19.40;100943.00;;;;4905511;29;20515;-81
2021/07/19 04:09:34;;;;;;;7.70;5.43;;;18.70;1.00;19.40;100948.00;;;;4909530;29;20483;-83
2021/07/19 04:12:04;;;;;;;10.70;5.70;;;18.70;1.00;19.40;100949.00;;;;4910720;29;20500;-80
2021/07/19 04:14:33;;;;;;;7.83;5.70;;;18.70;1.00;19.40;100931.00;;;;4896034;29;20546;-82
2021/07/19 04:17:06;;;;;;;9.93;5.73;;;18.70;1.00;19.50;100969.00;;;;4895233;29;20459;-81
2021/07/19 04:19:37;;;;;;;8.17;5.73;;;18.70;1.00;19.50;100954.00;;;;4910258;29;20505;-81
2021/07/19 04:22:08;;;;;;;8.37;5.80;;;18.80;1.00;19.60;100959.00;;;;4891360;29;20479;-80
2021/07/19 04:24:59;;;;;;;6.47;5.30;;;18.90;1.00;19.70;100958.00;;;;4898181;29;20511;-81
2021/07/19 04:27:28;;;;;;;8.80;5.77;;;19.00;1.00;19.80;100913.00;;;;4901311;29;20573;-80
2021/07/19 04:29:56;;;;;;;10.07;5.80;;;19.10;1.00;19.80;100938.00;;;;4895508;29;20478;-79
2021/07/19 04:32:25;;;;;;;9.90;6.30;;;19.10;1.00;19.90;100961.00;;;;4894855;29;20470;-81
2021/07/19 04:34:56;;;;;;;6.63;5.77;;;19.10;1.00;19.90;100962.00;;;;4894371;29;20510;-80
2021/07/19 04:37:25;;;;;;;5.80;5.17;;;19.20;1.00;19.90;100965.00;;;;4901734;29;21046;-80
2021/07/19 04:39:53;;;;;;;7.43;5.93;;;19.20;1.00;19.70;100941.00;;;;4893551;29;20515;-80
2021/07/19 04:42:27;;;;;;;7.10;6.40;;;19.20;1.00;20.00;100957.00;;;;4893253;29;20483;-80
2021/07/19 04:44:55;;;;;;;10.87;6.30;;;19.20;1.00;20.00;100947.00;;;;4894058;29;21197;-80
2021/07/19 04:47:24;;;;;;;8.50;5.37;;;19.30;1.00;20.00;100971.00;;;;4891914;29;20542;-81
2021/07/19 04:49:52;;;;;;;7.63;5.13;;;19.30;1.00;20.20;100954.00;;;;4890558;29;20491;-81
2021/07/19 04:52:22;;;;;;;8.50;5.60;;;19.50;1.00;20.20;100939.00;;;;4892034;29;20495;-80
2021/07/19 04:54:52;;;;;;;7.63;5.60;;;19.40;1.00;20.20;100968.00;;;;4891123;29;20487;-80
2021/07/19 04:57:22;;;;;;;8.80;5.27;;;19.40;1.00;20.30;100941.00;;;;4888009;29;20455;-79
2021/07/19 04:59:52;;;;;;;7.60;5.10;;;19.50;1.00;20.20;100954.00;;;;4896823;29;20487;-81
2021/07/19 05:02:23;;;;;;;7.00;5.77;;;19.40;1.00;20.30;100948.00;;;;4892937;29;20463;-80
2021/07/19 05:04:54;;;;;;;9.47;5.03;;;19.50;1.00;20.30;100939.00;;;;4885826;29;20490;-80
2021/07/19 05:07:30;;;;;;;6.83;5.60;;;19.50;1.00;20.40;100960.00;;;;4895418;29;20542;-80
2021/07/19 05:10:01;;;;;;;7.30;5.40;;;19.50;1.00;20.40;100962.00;;;;4891813;29;20553;-81
2021/07/19 05:12:32;;;;;;;10.80;5.20;;;19.50;1.00;20.40;100892.00;;;;4892764;29;20458;-80
2021/07/19 05:15:01;;;;;;;7.30;5.93;;;19.60;1.00;20.40;100894.00;;;;4900474;29;20463;-81
2021/07/19 05:17:31;;;;;;;9.70;5.87;;;19.60;1.00;20.50;100971.00;;;;4894856;29;20456;-83
2021/07/19 05:20:00;;;;;;;8.90;5.60;;;19.60;1.00;20.60;100962.00;;;;4902850;29;20493;-80
2021/07/19 05:22:30;;;;;;;9.30;5.37;;;19.80;1.00;20.60;100963.00;;;;4885810;29;20468;-81
2021/07/19 05:24:58;;;;;;;6.43;5.10;;;19.80;1.00;20.70;100965.00;;;;4906282;29;20470;-81
2021/07/19 05:27:27;;;;;;;10.63;5.93;;;19.90;1.00;20.70;100970.00;;;;4894870;29;21047;-81
2021/07/19 05:29:56;;;;;;;5.53;4.77;;;19.90;1.00;20.80;100934.00;;;;4894407;29;20475;-80
2021/07/19 05:32:27;;;;;;;11.03;5.83;;;20.00;1.00;20.90;100958.00;;;;4888484;29;20503;-81
2021/07/19 05:34:58;;;;;;;6.30;5.00;;;20.00;1.00;20.80;100924.00;;;;4894400;29;20478;-80
2021/07/19 05:37:27;;;;;;;6.50;5.30;;;20.10;1.00;21.00;100987.00;;;;4896003;29;20557;-80
2021/07/19 05:39:56;;;;;;;7.63;5.20;;;20.20;1.00;21.10;100977.00;;;;4893325;29;20512;-81
2021/07/19 05:42:25;;;;;;;7.27;5.60;;;20.30;1.00;21.20;100918.00;;;;4893154;29;20467;-81
2021/07/19 05:44:53;;;;;;;6.20;5.33;;;20.40;1.00;21.20;100971.00;;;;4888746;29;21503;-80
2021/07/19 05:47:21;;;;;;;7.03;6.20;;;20.40;1.00;21.20;100966.00;;;;4904450;29;20459;-80
2021/07/19 05:49:50;;;;;;;7.83;5.40;;;20.50;1.00;21.20;100953.00;;;;4895086;29;20491;-82
2021/07/19 05:52:18;;;;;;;9.10;5.67;;;20.50;1.00;21.30;100904.00;;;;4895619;29;20467;-83
2021/07/19 05:54:46;;;;;;;11.50;5.70;;;20.50;1.00;21.30;100983.00;;;;4908748;29;20470;-83
2021/07/19 05:57:19;;;;;;;7.43;5.03;;;20.60;1.00;21.20;100944.00;;;;4909757;29;20480;-82
2021/07/19 05:59:47;;;;;;;6.10;4.93;;;20.60;1.00;21.40;100983.00;;;;4906824;29;20467;-83
2021/07/19 06:02:17;;;;;;;6.37;5.10;;;20.70;1.00;21.40;100962.00;;;;4918806;29;20459;-82
2021/07/19 06:04:48;;;;;;;7.23;5.03;;;20.80;1.00;21.50;100974.00;;;;4900756;29;20461;-82
2021/07/19 06:07:20;;;;;;;6.80;4.73;;;20.80;1.00;21.50;100954.00;;;;4903328;29;20474;-82
2021/07/19 06:09:48;;;;;;;7.80;4.80;;;20.80;1.00;21.60;100934.00;;;;4902318;29;20504;-82
2021/07/19 06:12:18;;;;;;;5.83;4.97;;;20.90;1.00;21.70;100958.00;;;;4900004;29;20498;-83
2021/07/19 06:14:47;;;;;;;5.73;5.00;;;20.90;1.00;21.70;100983.00;;;;4911596;29;20471;-82
2021/07/19 06:17:15;;;;;;;7.57;5.00;;;21.00;1.00;21.80;100986.00;;;;4908944;29;20493;-82
2021/07/19 06:19:47;;;;;;;5.43;4.90;;;21.10;1.00;21.70;100948.00;;;;4903014;29;20498;-82
2021/07/19 06:22:16;;;;;;;9.37;5.53;;;21.00;1.00;21.80;100937.00;;;;4906964;29;20946;-82
2021/07/19 06:24:50;;;;;;;6.50;4.77;;;21.00;1.00;21.80;100936.00;;;;4897573;29;20490;-82
2021/07/19 06:27:19;;;;;;;6.50;4.50;;;21.00;1.00;21.80;100963.00;;;;4900286;29;20503;-83
2021/07/19 06:29:48;;;;;;;8.53;4.67;;;21.00;1.00;21.80;100946.00;;;;4898871;29;20700;-83
2021/07/19 06:32:16;;;;;;;11.43;4.63;;;21.10;1.00;21.90;100939.00;;;;4897288;29;20507;-83
2021/07/19 06:34:44;;;;;;;7.77;5.13;;;21.10;1.00;21.90;100954.00;;;;4907650;29;20554;-82
2021/07/19 06:37:13;;;;;;;11.17;4.90;;;21.10;1.00;22.00;100950.00;;;;4902043;29;20467;-82
2021/07/19 06:39:41;;;;;;;6.70;4.70;;;21.10;1.00;21.90;100934.00;;;;4908663;29;20486;-82
2021/07/19 06:42:10;;;;;;;6.20;4.83;;;21.10;1.00;21.90;100956.00;;;;4922670;29;20822;-82
2021/07/19 06:44:39;;;;;;;7.57;5.00;;;21.10;1.00;21.90;100981.00;;;;4906974;29;20633;-82
2021/07/19 06:47:08;;;;;;;5.03;4.30;;;21.10;1.00;21.80;100953.00;;;;4892501;29;20562;-83
2021/07/19 06:49:36;;;;;;;5.33;4.73;;;21.10;1.00;21.70;100972.00;;;;4896726;29;20493;-81
2021/07/19 06:52:05;;;;;;;4.80;4.30;;;21.00;1.00;21.60;100976.00;;;;4906001;29;20466;-82
2021/07/19 06:54:34;;;;;;;9.10;5.60;;;20.90;1.00;21.60;100974.00;;;;4897789;29;20467;-81
2021/07/19 06:57:02;;;;;;;9.20;4.87;;;20.90;1.00;21.70;100932.00;;;;4896776;29;20495;-81
2021/07/19 06:59:31;;;;;;;8.87;5.23;;;21.00;1.00;21.80;100909.00;;;;4895848;29;20486;-82
2021/07/19 07:02:01;;;;;;;6.03;4.50;;;21.10;1.00;21.50;100985.00;;;;4895365;29;20506;-81
2021/07/19 07:04:30;;;;;;;8.57;5.50;;;21.20;1.00;21.70;100977.00;;;;4892024;29;20549;-81
2021/07/19 07:06:59;;;;;;;9.27;5.17;;;21.10;1.00;21.90;100953.00;;;;4898487;29;20538;-82
2021/07/19 07:09:29;;;;;;;7.23;5.00;;;21.20;1.00;22.00;100980.00;;;;4896301;29;20475;-81
2021/07/19 07:12:17;;;;;;;6.50;5.67;;;21.40;1.00;22.10;100973.00;;;;4896817;29;20462;-82
2021/07/19 07:14:45;;;;;;;7.50;4.83;;;21.40;1.00;22.00;100944.00;;;;4910831;29;20463;-81
2021/07/19 07:17:15;;;;;;;7.47;4.63;;;21.40;1.00;22.20;100973.00;;;;4913043;29;20455;-82
2021/07/19 07:19:44;;;;;;;7.73;4.97;;;21.50;1.00;22.30;100963.00;;;;4906676;29;20480;-81
2021/07/19 07:22:12;;;;;;;7.10;6.00;;;21.70;1.00;22.40;100977.00;;;;4899842;29;20574;-81
2021/07/19 07:24:41;;;;;;;8.47;5.43;;;21.80;1.00;22.40;100969.00;;;;4888566;29;20494;-81
2021/07/19 07:27:11;;;;;;;8.60;5.17;;;21.70;1.00;22.40;100945.00;;;;4900221;29;20479;-81
2021/07/19 07:29:40;;;;;;;6.50;4.90;;;21.80;1.00;22.30;100964.00;;;;4909832;29;20992;-82
2021/07/19 07:32:09;;;;;;;8.33;4.50;;;21.70;1.00;22.20;100935.00;;;;4907897;29;20490;-81
2021/07/19 07:34:41;;;;;;;5.40;4.70;;;21.50;1.00;22.20;100990.00;;;;4907149;29;21199;-81
2021/07/19 07:37:12;;;;;;;7.57;4.77;;;21.50;1.00;22.10;100982.00;;;;4904489;29;20539;-82
2021/07/19 07:39:42;;;;;;;6.27;4.77;;;21.50;1.00;22.10;100977.00;;;;4906020;29;20589;-82
2021/07/19 07:42:11;;;;;;;4.80;4.30;;;21.50;1.00;22.00;100979.00;;;;4904812;29;20459;-82
2021/07/19 07:44:40;;;;;;;5.67;4.87;;;21.40;1.00;22.10;100976.00;;;;4920647;29;20470;-80
2021/07/19 07:47:09;;;;;;;9.90;5.20;;;21.40;1.00;22.20;100963.00;;;;4917317;29;20489;-81
2021/07/19 07:49:40;;;;;;;6.93;5.03;;;21.50;1.00;22.20;101008.00;;;;4927915;29;20511;-80
2021/07/19 07:52:10;;;;;;;5.83;4.80;;;21.50;1.00;21.80;100992.00;;;;4917348;29;20478;-81
2021/07/19 07:54:39;;;;;;;5.27;4.77;;;21.30;1.00;21.70;101000.00;;;;4906607;29;20594;-80
2021/07/19 07:57:08;;;;;;;5.77;5.20;;;21.10;1.00;21.70;101003.00;;;;4903510;29;21037;-83
2021/07/19 07:59:37;;;;;;;8.93;4.90;;;21.20;1.00;21.70;100979.00;;;;4908417;29;20482;-82
2021/07/19 08:02:07;;;;;;;6.20;4.83;;;21.20;1.00;21.70;100990.00;;;;4898586;29;20525;-83
2021/07/19 08:04:37;;;;;;;7.33;5.10;;;21.20;1.00;21.80;100964.00;;;;4893061;29;20461;-82
2021/07/19 08:07:07;;;;;;;6.73;5.20;;;21.30;1.00;22.30;100935.00;;;;4901925;29;20493;-83
2021/07/19 08:09:36;;;;;;;6.03;5.03;;;21.60;1.00;22.70;100985.00;;;;4896461;29;20485;-82
2021/07/19 08:12:05;;;;;;;9.63;5.93;;;22.00;1.00;22.90;100982.00;;;;4900234;29;20499;-83
2021/07/19 08:14:35;;;;;;;12.30;6.53;;;22.20;1.00;23.10;100954.00;;;;4903328;29;20467;-83
2021/07/19 08:17:04;;;;;;;13.87;5.40;;;22.50;1.00;23.30;100908.00;;;;4903740;29;20471;-81
2021/07/19 08:19:34;;;;;;;8.43;5.53;;;22.60;1.00;23.40;100991.00;;;;4898506;29;20483;-80
2021/07/19 08:22:11;;;;;;;6.83;5.50;;;22.80;1.00;23.60;100986.00;;;;4898560;29;20459;-79
2021/07/19 08:24:40;;;;;;;5.87;4.80;;;23.00;1.00;23.70;100980.00;;;;4903005;29;20534;-79
2021/07/19 08:27:09;;;;;;;9.50;6.10;;;23.20;1.00;24.00;100974.00;;;;4894879;29;20483;-80
2021/07/19 08:29:40;;;;;;;6.20;5.30;;;23.50;1.00;24.30;100956.00;;;;4895529;29;21082;-80
2021/07/19 08:32:09;;;;;;;8.80;7.07;;;23.90;1.00;24.40;100965.00;;;;4888489;29;20467;-80
2021/07/19 08:34:38;;;;;;;9.23;6.30;;;23.80;1.00;24.50;100970.00;;;;4893631;29;20470;-80
2021/07/19 08:37:08;;;;;;;6.90;5.47;;;23.90;1.00;24.40;100968.00;;;;4896602;29;20455;-80
2021/07/19 08:39:36;;;;;;;7.63;6.20;;;23.90;1.00;24.50;100968.00;;;;4907026;29;20534;-81
2021/07/19 08:42:05;;;;;;;8.00;5.97;;;24.00;1.00;24.30;100930.00;;;;4906263;29;20554;-80
2021/07/19 08:44:37;;;;;;;6.83;5.73;;;23.90;1.00;24.10;100966.00;;;;4912754;29;20453;-81
2021/07/19 08:47:08;;;;;;;6.17;5.37;;;23.60;1.00;23.90;100921.00;;;;4904901;29;20481;-79
2021/07/19 08:49:39;;;;;;;8.10;6.27;;;23.50;1.00;23.90;100937.00;;;;4896947;29;20467;-79
2021/07/19 08:52:09;;;;;;;9.87;5.63;;;23.60;1.00;23.90;100960.00;;;;4899243;29;20478;-81
2021/07/19 08:54:38;;;;;;;8.57;6.50;;;23.50;1.00;23.90;100950.00;;;;4904549;29;20856;-78
2021/07/19 08:57:07;;;;;;;7.23;6.00;;;23.50;1.00;23.80;100956.00;;;;4904803;29;20459;-80
2021/07/19 08:59:47;;;;;;;9.47;6.80;;;23.60;1.00;23.80;100952.00;;;;4912057;29;20515;-81
2021/07/19 09:02:16;;;;;;;6.97;6.00;;;23.60;1.00;23.80;100956.00;;;;4921736;29;20535;-80
2021/07/19 09:04:44;;;;;;;8.30;6.70;;;23.50;1.00;23.70;100946.00;;;;4926179;29;20518;-81
2021/07/19 09:07:16;;;;;;;15.80;7.30;;;23.40;1.00;23.80;100956.00;;;;4914765;29;20476;-79
2021/07/19 09:09:45;;;;;;;9.53;7.27;;;23.40;1.00;23.60;100953.00;;;;4904177;29;20510;-79
2021/07/19 09:12:14;;;;;;;10.63;7.93;;;23.30;1.00;23.70;100931.00;;;;4901033;29;20467;-79
2021/07/19 09:14:48;;;;;;;8.53;7.20;;;23.20;1.00;23.60;100964.00;;;;4896459;29;20479;-80
2021/07/19 09:17:27;;;;;;;10.77;7.00;;;23.10;1.00;23.40;100935.00;;;;4904471;29;20463;-80
2021/07/19 09:19:58;;;;;;;9.37;7.53;;;23.20;1.00;23.50;100923.00;;;;4902739;29;20478;-81
2021/07/19 09:22:31;;;;;;;9.37;7.60;;;23.20;1.00;23.50;100945.00;;;;4911910;29;20447;-79
2021/07/19 09:25:12;;;;;;;9.37;8.30;;;23.30;1.00;23.50;100916.00;;;;4906503;29;20448;-79
2021/07/19 09:27:55;;;;;;;8.33;7.50;;;23.20;1.00;23.40;100919.00;;;;4903702;29;21076;-80
2021/07/19 09:30:26;;;;;;;10.27;9.27;;;23.10;1.00;23.40;100944.00;;;;4905818;29;20881;-78
2021/07/19 09:32:58;;;;;;;9.27;8.30;;;23.10;1.00;23.40;100926.00;;;;4896562;29;20655;-80
2021/07/19 09:35:28;;;;;;;10.40;8.87;;;23.10;1.00;23.40;100937.00;;;;4900664;29;20455;-80
2021/07/19 09:38:04;;;;;;;11.70;8.10;;;23.10;1.00;23.30;100894.00;;;;4912694;29;20438;-80
2021/07/19 09:40:34;;;;;;;12.00;8.90;;;23.00;1.00;23.40;100888.00;;;;4914417;29;20478;-80
2021/07/19 09:43:16;;;;;;;10.30;9.10;;;23.10;1.00;23.50;100906.00;;;;4918620;29;20439;-80
2021/07/19 09:45:51;;;;;;;13.40;10.27;;;23.30;1.00;23.50;100913.00;;;;4916379;29;20475;-80
2021/07/19 09:48:23;;;;;;;14.27;9.60;;;23.30;1.00;23.30;100927.00;;;;4911537;29;20494;-80
2021/07/19 09:50:53;;;;;;;10.47;9.37;;;23.30;1.00;23.60;100932.00;;;;4898705;29;20459;-81
2021/07/19 09:53:33;;;;;;;15.70;11.07;;;23.40;1.00;23.60;100894.00;;;;4897292;29;20455;-81
2021/07/19 09:56:13;;;;;;;10.83;9.40;;;23.60;1.00;23.70;100932.00;;;;4900379;29;20463;-79
2021/07/19 09:58:42;;;;;;;12.63;9.97;;;23.60;1.00;23.90;100935.00;;;;4903748;29;20535;-80
2021/07/19 10:01:10;;;;;;;11.20;10.10;;;23.80;1.00;23.80;100936.00;;;;4900368;29;20487;-80
2021/07/19 10:03:40;;;;;;;12.53;9.93;;;23.70;1.00;23.80;100880.00;;;;4902266;29;20456;-80
2021/07/19 10:06:09;;;;;;;12.33;10.57;;;23.80;1.00;23.80;100921.00;;;;4917094;29;20467;-82
2021/07/19 10:08:39;;;;;;;10.70;9.07;;;23.70;1.00;23.90;100855.00;;;;4914599;29;20567;-81
2021/07/19 10:11:16;;;;;;;13.37;9.60;;;23.80;1.00;24.00;100882.00;;;;4892787;29;20483;-79
2021/07/19 10:13:49;;;;;;;11.67;8.80;;;24.00;1.00;24.10;100909.00;;;;4903456;29;20514;-80
2021/07/19 10:16:18;;;;;;;12.50;10.40;;;24.10;1.00;24.10;100876.00;;;;4894679;29;20467;-81
2021/07/19 10:18:48;;;;;;;12.47;9.73;;;24.10;1.00;24.20;100919.00;;;;4894704;29;20495;-80
2021/07/19 10:21:18;;;;;;;11.27;9.37;;;24.20;1.00;24.30;100916.00;;;;4895046;29;20447;-79
2021/07/19 10:23:48;;;;;;;11.90;8.90;;;24.30;1.00;24.30;100928.00;;;;4894940;29;20576;-80
2021/07/19 10:26:18;;;;;;;13.73;9.93;;;24.30;1.00;24.30;100871.00;;;;4913746;29;20550;-80
2021/07/19 10:28:47;;;;;;;10.77;9.03;;;24.20;1.00;24.30;100902.00;;;;4895528;29;20513;-80
2021/07/19 10:31:18;;;;;;;10.40;9.40;;;24.30;1.00;24.40;100895.00;;;;4909561;29;20463;-81
2021/07/19 10:33:52;;;;;;;14.70;10.10;;;24.50;1.00;24.50;100852.00;;;;4897707;29;20455;-80
2021/07/19 10:36:30;;;;;;;12.03;10.57;;;24.40;1.00;24.40;100891.00;;;;4893071;29;20487;-81
2021/07/19 10:39:05;;;;;;;11.33;10.07;;;24.30;1.00;24.50;100910.00;;;;4912067;29;20483;-82
2021/07/19 10:41:34;;;;;;;13.50;9.40;;;24.50;1.00;24.60;100906.00;;;;4917860;29;20451;-79
2021/07/19 10:44:05;;;;;;;12.17;10.83;;;24.60;1.00;24.50;100895.00;;;;4903247;29;20483;-80
2021/07/19 10:46:34;;;;;;;12.20;9.83;;;24.50;1.00;24.60;100893.00;;;;4897634;29;20494;-80
2021/07/19 10:49:09;;;;;;;10.63;9.60;;;24.60;1.00;24.50;100903.00;;;;4895627;29;20499;-80
2021/07/19 10:51:45;;;;;;;12.17;9.97;;;24.50;1.00;24.50;100862.00;;;;4896214;29;20462;-80
2021/07/19 10:54:18;;;;;;;14.33;10.30;;;24.50;1.00;24.50;100894.00;;;;4903475;29;20458;-79
2021/07/19 10:56:51;;;;;;;15.60;12.10;;;24.50;1.00;24.50;100894.00;;;;4894235;29;20565;-79
2021/07/19 10:59:27;;;;;;;12.80;11.50;;;24.50;1.00;24.50;100898.00;;;;4893992;29;20475;-79
2021/07/19 11:01:57;;;;;;;13.50;11.37;;;24.40;1.00;24.50;100894.00;;;;4892521;29;20486;-79
2021/07/19 11:04:27;;;;;;;12.27;11.00;;;24.30;1.00;24.70;100868.00;;;;4892200;29;20483;-80
2021/07/19 11:06:58;;;;;;;14.57;12.10;;;24.60;1.00;24.80;100892.00;;;;4892536;29;20451;-79
2021/07/19 11:09:38;;;;;;;12.73;11.40;;;24.80;1.00;24.80;100859.00;;;;4883747;29;20871;-79
2021/07/19 11:12:11;;;;;;;14.30;12.53;;;24.90;1.00;24.90;100864.00;;;;4894837;29;20824;-81